sensor_id;sensor_type;location;lat;lon;timestamp;P1;durP1;ratioP1;P2;durP2;ratioP2
363;SDS011;173;48.718;9.274;2022-12-18T00:02:29;62.70;;;34.90;;
363;SDS011;173;48.718;9.274;2022-12-18T00:05:01;69.60;;;37.50;;
363;SDS011;173;48.718;9.274;2022-12-18T00:07:35;65.77;;;36.40;;
363;SDS011;173;48.718;9.274;2022-12-18T00:12:38;62.03;;;35.77;;
363;SDS011;173;48.718;9.274;2022-12-18T00:17:40;67.45;;;36.90;;
363;SDS011;173;48.718;9.274;2022-12-18T00:22:44;66.55;;;37.25;;
363;SDS011;173;48.718;9.274;2022-12-18T00:25:16;70.67;;;39.97;;
363;SDS011;173;48.718;9.274;2022-12-18T00:27:48;74.63;;;40.43;;
363;SDS011;173;48.718;9.274;2022-12-18T00:30:20;71.07;;;40.97;;
363;SDS011;173;48.718;9.274;2022-12-18T00:32:52;78.80;;;40.60;;
363;SDS011;173;48.718;9.274;2022-12-18T00:35:25;56.10;;;35.70;;
363;SDS011;173;48.718;9.274;2022-12-18T00:37:57;77.40;;;37.67;;
363;SDS011;173;48.718;9.274;2022-12-18T00:40:31;75.12;;;38.15;;
363;SDS011;173;48.718;9.274;2022-12-18T00:43:03;68.90;;;37.95;;
363;SDS011;173;48.718;9.274;2022-12-18T00:45:36;63.20;;;34.60;;
363;SDS011;173;48.718;9.274;2022-12-18T00:48:10;82.47;;;39.53;;
363;SDS011;173;48.718;9.274;2022-12-18T00:50:42;64.95;;;36.10;;
363;SDS011;173;48.718;9.274;2022-12-18T00:53:15;60.00;;;34.63;;
363;SDS011;173;48.718;9.274;2022-12-18T00:55:48;65.83;;;36.73;;
363;SDS011;173;48.718;9.274;2022-12-18T00:58:20;92.30;;;36.20;;
363;SDS011;173;48.718;9.274;2022-12-18T01:00:52;57.20;;;34.60;;
363;SDS011;173;48.718;9.274;2022-12-18T01:03:24;76.43;;;36.00;;
363;SDS011;173;48.718;9.274;2022-12-18T01:05:58;66.93;;;35.47;;
363;SDS011;173;48.718;9.274;2022-12-18T01:08:38;70.27;;;37.47;;
363;SDS011;173;48.718;9.274;2022-12-18T01:11:11;67.10;;;35.40;;
363;SDS011;173;48.718;9.274;2022-12-18T01:13:46;70.28;;;37.98;;
363;SDS011;173;48.718;9.274;2022-12-18T01:16:19;55.10;;;32.67;;
363;SDS011;173;48.718;9.274;2022-12-18T01:18:52;64.95;;;37.25;;
363;SDS011;173;48.718;9.274;2022-12-18T01:21:26;77.00;;;36.40;;
363;SDS011;173;48.718;9.274;2022-12-18T01:23:59;61.55;;;35.55;;
363;SDS011;173;48.718;9.274;2022-12-18T01:26:32;63.63;;;36.93;;
363;SDS011;173;48.718;9.274;2022-12-18T01:29:05;72.73;;;38.07;;
363;SDS011;173;48.718;9.274;2022-12-18T01:31:37;71.10;;;38.55;;
363;SDS011;173;48.718;9.274;2022-12-18T01:34:09;63.20;;;38.05;;
363;SDS011;173;48.718;9.274;2022-12-18T01:36:39;61.20;;;34.40;;
363;SDS011;173;48.718;9.274;2022-12-18T01:39:12;71.60;;;39.00;;
363;SDS011;173;48.718;9.274;2022-12-18T01:41:45;60.08;;;32.55;;
363;SDS011;173;48.718;9.274;2022-12-18T01:50:22;68.37;;;37.37;;
363;SDS011;173;48.718;9.274;2022-12-18T01:57:21;63.00;;;36.00;;
363;SDS011;173;48.718;9.274;2022-12-18T01:59:56;60.80;;;34.80;;
363;SDS011;173;48.718;9.274;2022-12-18T02:02:31;64.50;;;36.42;;
363;SDS011;173;48.718;9.274;2022-12-18T02:05:03;60.50;;;33.40;;
363;SDS011;173;48.718;9.274;2022-12-18T02:07:56;62.05;;;34.60;;
363;SDS011;173;48.718;9.274;2022-12-18T02:14:12;57.60;;;33.30;;
363;SDS011;173;48.718;9.274;2022-12-18T02:20:10;56.40;;;30.70;;
363;SDS011;173;48.718;9.274;2022-12-18T02:22:47;54.80;;;32.53;;
363;SDS011;173;48.718;9.274;2022-12-18T02:29:00;49.40;;;31.50;;
363;SDS011;173;48.718;9.274;2022-12-18T02:31:43;60.93;;;32.43;;
363;SDS011;173;48.718;9.274;2022-12-18T02:34:27;54.53;;;31.55;;
363;SDS011;173;48.718;9.274;2022-12-18T02:37:03;56.70;;;33.10;;
363;SDS011;173;48.718;9.274;2022-12-18T02:39:39;58.40;;;35.00;;
363;SDS011;173;48.718;9.274;2022-12-18T02:42:14;50.93;;;31.37;;
363;SDS011;173;48.718;9.274;2022-12-18T02:44:49;50.07;;;30.97;;
363;SDS011;173;48.718;9.274;2022-12-18T02:47:22;55.15;;;31.60;;
363;SDS011;173;48.718;9.274;2022-12-18T02:53:02;55.00;;;31.50;;
363;SDS011;173;48.718;9.274;2022-12-18T03:04:26;52.80;;;33.70;;
363;SDS011;173;48.718;9.274;2022-12-18T03:10:09;49.30;;;29.70;;
363;SDS011;173;48.718;9.274;2022-12-18T03:12:47;49.10;;;29.50;;
363;SDS011;173;48.718;9.274;2022-12-18T03:15:22;46.50;;;28.10;;
363;SDS011;173;48.718;9.274;2022-12-18T03:18:02;49.90;;;30.80;;
363;SDS011;173;48.718;9.274;2022-12-18T03:20:35;52.05;;;28.92;;
363;SDS011;173;48.718;9.274;2022-12-18T03:23:11;45.10;;;29.20;;
363;SDS011;173;48.718;9.274;2022-12-18T03:25:51;50.10;;;27.97;;
363;SDS011;173;48.718;9.274;2022-12-18T03:28:27;49.47;;;26.23;;
363;SDS011;173;48.718;9.274;2022-12-18T03:31:04;44.90;;;28.70;;
363;SDS011;173;48.718;9.274;2022-12-18T03:33:46;54.20;;;28.20;;
363;SDS011;173;48.718;9.274;2022-12-18T03:38:58;38.47;;;25.07;;
363;SDS011;173;48.718;9.274;2022-12-18T03:41:47;44.40;;;27.25;;
363;SDS011;173;48.718;9.274;2022-12-18T03:44:29;46.77;;;27.17;;
363;SDS011;173;48.718;9.274;2022-12-18T03:53:24;54.20;;;28.20;;
363;SDS011;173;48.718;9.274;2022-12-18T03:55:47;46.20;;;27.20;;
363;SDS011;173;48.718;9.274;2022-12-18T03:58:21;42.90;;;28.57;;
363;SDS011;173;48.718;9.274;2022-12-18T04:00:56;46.75;;;27.45;;
363;SDS011;173;48.718;9.274;2022-12-18T04:03:31;48.30;;;28.83;;
363;SDS011;173;48.718;9.274;2022-12-18T04:06:04;47.20;;;28.00;;
363;SDS011;173;48.718;9.274;2022-12-18T04:08:37;47.03;;;26.12;;
363;SDS011;173;48.718;9.274;2022-12-18T04:11:10;51.40;;;28.20;;
363;SDS011;173;48.718;9.274;2022-12-18T04:13:42;47.70;;;27.25;;
363;SDS011;173;48.718;9.274;2022-12-18T04:16:14;49.50;;;27.23;;
363;SDS011;173;48.718;9.274;2022-12-18T04:18:46;50.10;;;28.70;;
363;SDS011;173;48.718;9.274;2022-12-18T04:21:18;48.48;;;28.42;;
363;SDS011;173;48.718;9.274;2022-12-18T04:23:50;49.27;;;29.10;;
363;SDS011;173;48.718;9.274;2022-12-18T04:26:22;45.73;;;27.10;;
363;SDS011;173;48.718;9.274;2022-12-18T04:28:54;42.50;;;25.37;;
363;SDS011;173;48.718;9.274;2022-12-18T04:31:26;39.07;;;24.33;;
363;SDS011;173;48.718;9.274;2022-12-18T04:33:58;37.90;;;25.20;;
363;SDS011;173;48.718;9.274;2022-12-18T04:36:30;39.15;;;24.95;;
363;SDS011;173;48.718;9.274;2022-12-18T04:39:02;39.60;;;23.70;;
363;SDS011;173;48.718;9.274;2022-12-18T04:41:34;41.33;;;25.83;;
363;SDS011;173;48.718;9.274;2022-12-18T04:44:07;36.35;;;23.05;;
363;SDS011;173;48.718;9.274;2022-12-18T04:46:39;35.40;;;23.50;;
363;SDS011;173;48.718;9.274;2022-12-18T04:49:11;37.58;;;21.80;;
363;SDS011;173;48.718;9.274;2022-12-18T04:51:43;35.30;;;23.50;;
363;SDS011;173;48.718;9.274;2022-12-18T04:56:46;32.60;;;20.10;;
363;SDS011;173;48.718;9.274;2022-12-18T04:59:18;35.63;;;22.57;;
363;SDS011;173;48.718;9.274;2022-12-18T05:01:50;29.07;;;20.07;;
363;SDS011;173;48.718;9.274;2022-12-18T05:04:22;33.70;;;22.70;;
363;SDS011;173;48.718;9.274;2022-12-18T05:06:54;33.10;;;21.50;;
363;SDS011;173;48.718;9.274;2022-12-18T05:09:26;30.65;;;22.45;;
363;SDS011;173;48.718;9.274;2022-12-18T05:11:58;39.57;;;22.53;;
363;SDS011;173;48.718;9.274;2022-12-18T05:14:30;37.38;;;23.98;;
363;SDS011;173;48.718;9.274;2022-12-18T05:17:02;38.80;;;22.20;;
363;SDS011;173;48.718;9.274;2022-12-18T05:22:07;36.40;;;21.77;;
363;SDS011;173;48.718;9.274;2022-12-18T05:24:40;42.75;;;23.50;;
363;SDS011;173;48.718;9.274;2022-12-18T05:27:12;32.40;;;20.50;;
363;SDS011;173;48.718;9.274;2022-12-18T05:29:45;36.80;;;23.00;;
363;SDS011;173;48.718;9.274;2022-12-18T05:32:17;35.47;;;24.07;;
363;SDS011;173;48.718;9.274;2022-12-18T05:34:49;36.40;;;22.60;;
363;SDS011;173;48.718;9.274;2022-12-18T05:37:23;37.90;;;24.00;;
363;SDS011;173;48.718;9.274;2022-12-18T05:39:54;36.15;;;23.55;;
363;SDS011;173;48.718;9.274;2022-12-18T05:42:26;33.80;;;23.30;;
363;SDS011;173;48.718;9.274;2022-12-18T05:47:29;33.90;;;21.60;;
363;SDS011;173;48.718;9.274;2022-12-18T05:50:01;37.80;;;24.33;;
363;SDS011;173;48.718;9.274;2022-12-18T05:55:05;39.77;;;22.60;;
363;SDS011;173;48.718;9.274;2022-12-18T05:57:37;35.35;;;22.45;;
363;SDS011;173;48.718;9.274;2022-12-18T06:00:10;35.50;;;21.90;;
363;SDS011;173;48.718;9.274;2022-12-18T06:02:46;33.33;;;23.03;;
363;SDS011;173;48.718;9.274;2022-12-18T06:05:17;36.15;;;21.60;;
363;SDS011;173;48.718;9.274;2022-12-18T06:07:49;32.00;;;20.80;;
363;SDS011;173;48.718;9.274;2022-12-18T06:10:21;35.50;;;22.97;;
363;SDS011;173;48.718;9.274;2022-12-18T06:12:53;38.80;;;24.00;;
363;SDS011;173;48.718;9.274;2022-12-18T06:15:25;33.60;;;22.05;;
363;SDS011;173;48.718;9.274;2022-12-18T06:17:57;34.80;;;21.10;;
363;SDS011;173;48.718;9.274;2022-12-18T06:20:30;30.50;;;20.05;;
363;SDS011;173;48.718;9.274;2022-12-18T06:23:05;35.30;;;23.60;;
363;SDS011;173;48.718;9.274;2022-12-18T06:25:39;33.80;;;22.75;;
363;SDS011;173;48.718;9.274;2022-12-18T06:30:44;37.60;;;22.40;;
363;SDS011;173;48.718;9.274;2022-12-18T06:33:18;32.85;;;21.65;;
363;SDS011;173;48.718;9.274;2022-12-18T06:35:52;33.17;;;22.97;;
363;SDS011;173;48.718;9.274;2022-12-18T06:38:29;34.35;;;22.10;;
363;SDS011;173;48.718;9.274;2022-12-18T06:41:07;38.90;;;21.93;;
363;SDS011;173;48.718;9.274;2022-12-18T06:43:42;32.70;;;20.40;;
363;SDS011;173;48.718;9.274;2022-12-18T06:46:14;31.55;;;20.90;;
363;SDS011;173;48.718;9.274;2022-12-18T06:48:47;34.25;;;22.65;;
363;SDS011;173;48.718;9.274;2022-12-18T06:51:20;33.20;;;21.80;;
363;SDS011;173;48.718;9.274;2022-12-18T06:53:53;36.10;;;22.13;;
363;SDS011;173;48.718;9.274;2022-12-18T06:56:25;37.05;;;24.05;;
363;SDS011;173;48.718;9.274;2022-12-18T06:58:57;33.60;;;20.80;;
363;SDS011;173;48.718;9.274;2022-12-18T07:01:29;40.00;;;23.03;;
363;SDS011;173;48.718;9.274;2022-12-18T07:04:01;36.40;;;21.20;;
363;SDS011;173;48.718;9.274;2022-12-18T07:06:33;36.75;;;21.80;;
363;SDS011;173;48.718;9.274;2022-12-18T07:09:05;33.30;;;20.70;;
363;SDS011;173;48.718;9.274;2022-12-18T07:11:37;30.90;;;21.17;;
363;SDS011;173;48.718;9.274;2022-12-18T07:14:09;34.60;;;23.40;;
363;SDS011;173;48.718;9.274;2022-12-18T07:16:41;39.10;;;23.70;;
363;SDS011;173;48.718;9.274;2022-12-18T07:19:12;38.17;;;24.23;;
363;SDS011;173;48.718;9.274;2022-12-18T07:21:44;38.00;;;23.60;;
363;SDS011;173;48.718;9.274;2022-12-18T07:24:17;35.80;;;22.50;;
363;SDS011;173;48.718;9.274;2022-12-18T07:26:49;40.13;;;22.10;;
363;SDS011;173;48.718;9.274;2022-12-18T07:29:22;36.77;;;24.20;;
363;SDS011;173;48.718;9.274;2022-12-18T07:31:54;37.30;;;25.27;;
363;SDS011;173;48.718;9.274;2022-12-18T07:34:26;42.60;;;22.45;;
363;SDS011;173;48.718;9.274;2022-12-18T07:36:58;39.50;;;23.83;;
363;SDS011;173;48.718;9.274;2022-12-18T07:39:30;39.25;;;23.20;;
363;SDS011;173;48.718;9.274;2022-12-18T07:44:50;34.00;;;23.00;;
363;SDS011;173;48.718;9.274;2022-12-18T07:47:22;36.85;;;23.40;;
363;SDS011;173;48.718;9.274;2022-12-18T07:52:30;35.35;;;20.70;;
363;SDS011;173;48.718;9.274;2022-12-18T07:57:34;29.35;;;20.05;;
363;SDS011;173;48.718;9.274;2022-12-18T08:00:06;32.55;;;20.90;;
363;SDS011;173;48.718;9.274;2022-12-18T08:02:39;34.20;;;22.10;;
363;SDS011;173;48.718;9.274;2022-12-18T08:05:11;34.05;;;21.60;;
363;SDS011;173;48.718;9.274;2022-12-18T08:07:43;33.63;;;21.20;;
363;SDS011;173;48.718;9.274;2022-12-18T08:10:16;36.07;;;23.67;;
363;SDS011;173;48.718;9.274;2022-12-18T08:12:49;35.80;;;23.30;;
363;SDS011;173;48.718;9.274;2022-12-18T08:15:22;30.83;;;22.20;;
363;SDS011;173;48.718;9.274;2022-12-18T08:18:01;33.30;;;20.80;;
363;SDS011;173;48.718;9.274;2022-12-18T08:20:28;39.50;;;23.10;;
363;SDS011;173;48.718;9.274;2022-12-18T08:23:00;34.00;;;20.60;;
363;SDS011;173;48.718;9.274;2022-12-18T08:25:32;36.40;;;24.30;;
363;SDS011;173;48.718;9.274;2022-12-18T08:28:05;37.60;;;24.40;;
363;SDS011;173;48.718;9.274;2022-12-18T08:30:37;43.67;;;26.30;;
363;SDS011;173;48.718;9.274;2022-12-18T08:33:09;46.70;;;27.00;;
363;SDS011;173;48.718;9.274;2022-12-18T08:35:42;43.10;;;26.13;;
363;SDS011;173;48.718;9.274;2022-12-18T08:38:14;45.50;;;26.90;;
363;SDS011;173;48.718;9.274;2022-12-18T08:43:16;35.97;;;22.90;;
363;SDS011;173;48.718;9.274;2022-12-18T08:46:06;34.95;;;23.15;;
363;SDS011;173;48.718;9.274;2022-12-18T08:48:39;42.23;;;25.00;;
363;SDS011;173;48.718;9.274;2022-12-18T08:51:11;41.27;;;28.20;;
363;SDS011;173;48.718;9.274;2022-12-18T08:53:56;46.60;;;27.80;;
363;SDS011;173;48.718;9.274;2022-12-18T08:56:30;40.37;;;26.43;;
363;SDS011;173;48.718;9.274;2022-12-18T08:59:02;43.30;;;28.93;;
363;SDS011;173;48.718;9.274;2022-12-18T09:01:36;41.90;;;25.45;;
363;SDS011;173;48.718;9.274;2022-12-18T09:04:09;40.80;;;22.93;;
363;SDS011;173;48.718;9.274;2022-12-18T09:06:41;44.33;;;24.90;;
363;SDS011;173;48.718;9.274;2022-12-18T09:09:13;35.17;;;24.17;;
363;SDS011;173;48.718;9.274;2022-12-18T09:11:46;35.37;;;23.00;;
363;SDS011;173;48.718;9.274;2022-12-18T09:14:18;42.60;;;22.40;;
363;SDS011;173;48.718;9.274;2022-12-18T09:16:50;34.97;;;21.00;;
363;SDS011;173;48.718;9.274;2022-12-18T09:21:52;33.17;;;20.70;;
363;SDS011;173;48.718;9.274;2022-12-18T09:24:26;37.97;;;21.33;;
363;SDS011;173;48.718;9.274;2022-12-18T09:26:58;37.93;;;22.00;;
363;SDS011;173;48.718;9.274;2022-12-18T09:29:30;32.47;;;20.87;;
363;SDS011;173;48.718;9.274;2022-12-18T09:32:02;30.53;;;21.87;;
363;SDS011;173;48.718;9.274;2022-12-18T09:34:36;28.20;;;21.65;;
363;SDS011;173;48.718;9.274;2022-12-18T09:37:08;31.40;;;22.40;;
363;SDS011;173;48.718;9.274;2022-12-18T09:39:40;35.03;;;21.33;;
363;SDS011;173;48.718;9.274;2022-12-18T09:42:20;38.23;;;22.27;;
363;SDS011;173;48.718;9.274;2022-12-18T09:44:53;28.80;;;19.20;;
363;SDS011;173;48.718;9.274;2022-12-18T09:47:27;34.27;;;23.73;;
363;SDS011;173;48.718;9.274;2022-12-18T09:50:04;41.85;;;24.10;;
363;SDS011;173;48.718;9.274;2022-12-18T09:52:56;36.33;;;22.87;;
363;SDS011;173;48.718;9.274;2022-12-18T09:55:42;33.57;;;21.93;;
363;SDS011;173;48.718;9.274;2022-12-18T09:58:34;42.40;;;23.80;;
363;SDS011;173;48.718;9.274;2022-12-18T10:01:01;36.00;;;23.20;;
363;SDS011;173;48.718;9.274;2022-12-18T10:03:39;42.60;;;23.30;;
363;SDS011;173;48.718;9.274;2022-12-18T10:14:53;32.63;;;20.00;;
363;SDS011;173;48.718;9.274;2022-12-18T10:21:56;31.23;;;20.33;;
363;SDS011;173;48.718;9.274;2022-12-18T10:24:53;29.90;;;18.95;;
363;SDS011;173;48.718;9.274;2022-12-18T10:27:27;38.27;;;24.30;;
363;SDS011;173;48.718;9.274;2022-12-18T10:30:00;30.20;;;17.70;;
363;SDS011;173;48.718;9.274;2022-12-18T10:32:39;27.10;;;16.60;;
363;SDS011;173;48.718;9.274;2022-12-18T10:35:21;28.00;;;15.33;;
363;SDS011;173;48.718;9.274;2022-12-18T10:41:06;28.23;;;18.17;;
363;SDS011;173;48.718;9.274;2022-12-18T10:43:38;23.55;;;15.00;;
363;SDS011;173;48.718;9.274;2022-12-18T10:48:51;28.45;;;19.45;;
363;SDS011;173;48.718;9.274;2022-12-18T10:51:26;29.10;;;17.80;;
363;SDS011;173;48.718;9.274;2022-12-18T10:54:01;27.05;;;15.65;;
363;SDS011;173;48.718;9.274;2022-12-18T10:56:37;23.70;;;17.03;;
363;SDS011;173;48.718;9.274;2022-12-18T10:59:11;25.25;;;18.20;;
363;SDS011;173;48.718;9.274;2022-12-18T11:01:46;33.00;;;17.95;;
363;SDS011;173;48.718;9.274;2022-12-18T11:04:26;28.00;;;17.87;;
363;SDS011;173;48.718;9.274;2022-12-18T11:07:05;25.77;;;16.93;;
363;SDS011;173;48.718;9.274;2022-12-18T11:09:39;27.13;;;15.93;;
363;SDS011;173;48.718;9.274;2022-12-18T11:12:16;25.30;;;16.50;;
363;SDS011;173;48.718;9.274;2022-12-18T11:14:50;28.70;;;17.10;;
363;SDS011;173;48.718;9.274;2022-12-18T11:17:29;23.80;;;16.00;;
363;SDS011;173;48.718;9.274;2022-12-18T11:20:09;29.07;;;17.90;;
363;SDS011;173;48.718;9.274;2022-12-18T11:22:54;26.97;;;16.70;;
363;SDS011;173;48.718;9.274;2022-12-18T11:25:30;25.97;;;16.77;;
363;SDS011;173;48.718;9.274;2022-12-18T11:28:05;24.90;;;14.70;;
363;SDS011;173;48.718;9.274;2022-12-18T11:31:34;25.17;;;16.57;;
363;SDS011;173;48.718;9.274;2022-12-18T11:33:51;25.90;;;16.90;;
363;SDS011;173;48.718;9.274;2022-12-18T11:36:42;32.23;;;17.27;;
363;SDS011;173;48.718;9.274;2022-12-18T11:39:19;31.23;;;18.57;;
363;SDS011;173;48.718;9.274;2022-12-18T11:42:16;30.20;;;18.03;;
363;SDS011;173;48.718;9.274;2022-12-18T11:53:29;27.40;;;16.80;;
363;SDS011;173;48.718;9.274;2022-12-18T11:56:12;31.00;;;18.20;;
363;SDS011;173;48.718;9.274;2022-12-18T12:01:48;26.90;;;15.85;;
363;SDS011;173;48.718;9.274;2022-12-18T12:13:33;26.55;;;18.40;;
363;SDS011;173;48.718;9.274;2022-12-18T12:16:22;26.80;;;16.60;;
363;SDS011;173;48.718;9.274;2022-12-18T12:22:09;26.63;;;17.90;;
363;SDS011;173;48.718;9.274;2022-12-18T12:27:40;25.30;;;17.70;;
363;SDS011;173;48.718;9.274;2022-12-18T12:30:42;30.80;;;17.63;;
363;SDS011;173;48.718;9.274;2022-12-18T12:33:41;28.95;;;16.80;;
363;SDS011;173;48.718;9.274;2022-12-18T12:36:22;32.00;;;20.10;;
363;SDS011;173;48.718;9.274;2022-12-18T12:39:01;32.80;;;19.15;;
363;SDS011;173;48.718;9.274;2022-12-18T12:41:37;27.90;;;18.80;;
363;SDS011;173;48.718;9.274;2022-12-18T12:44:41;27.87;;;18.20;;
363;SDS011;173;48.718;9.274;2022-12-18T12:49:58;28.07;;;18.77;;
363;SDS011;173;48.718;9.274;2022-12-18T12:52:39;28.30;;;19.05;;
363;SDS011;173;48.718;9.274;2022-12-18T12:55:21;28.97;;;17.67;;
363;SDS011;173;48.718;9.274;2022-12-18T13:03:35;29.85;;;19.15;;
363;SDS011;173;48.718;9.274;2022-12-18T13:09:17;33.00;;;20.60;;
363;SDS011;173;48.718;9.274;2022-12-18T13:14:38;31.03;;;17.60;;
363;SDS011;173;48.718;9.274;2022-12-18T13:20:09;26.60;;;16.30;;
363;SDS011;173;48.718;9.274;2022-12-18T13:22:46;33.10;;;20.50;;
363;SDS011;173;48.718;9.274;2022-12-18T13:28:13;28.70;;;17.40;;
363;SDS011;173;48.718;9.274;2022-12-18T13:30:48;34.30;;;19.10;;
363;SDS011;173;48.718;9.274;2022-12-18T13:36:12;32.10;;;17.77;;
363;SDS011;173;48.718;9.274;2022-12-18T13:45:03;25.20;;;19.00;;
363;SDS011;173;48.718;9.274;2022-12-18T13:48:01;30.90;;;16.40;;
363;SDS011;173;48.718;9.274;2022-12-18T13:50:37;31.57;;;17.90;;
363;SDS011;173;48.718;9.274;2022-12-18T13:53:17;27.77;;;16.60;;
363;SDS011;173;48.718;9.274;2022-12-18T13:55:54;34.55;;;20.15;;
363;SDS011;173;48.718;9.274;2022-12-18T13:58:28;37.30;;;19.30;;
363;SDS011;173;48.718;9.274;2022-12-18T14:01:02;34.90;;;19.40;;
363;SDS011;173;48.718;9.274;2022-12-18T14:03:38;31.00;;;18.20;;
363;SDS011;173;48.718;9.274;2022-12-18T14:06:12;31.20;;;19.80;;
363;SDS011;173;48.718;9.274;2022-12-18T14:08:48;32.07;;;17.77;;
363;SDS011;173;48.718;9.274;2022-12-18T14:11:23;29.55;;;17.70;;
363;SDS011;173;48.718;9.274;2022-12-18T14:13:56;28.00;;;18.55;;
363;SDS011;173;48.718;9.274;2022-12-18T14:16:31;32.30;;;18.60;;
363;SDS011;173;48.718;9.274;2022-12-18T14:19:08;36.20;;;19.50;;
363;SDS011;173;48.718;9.274;2022-12-18T14:21:47;32.20;;;22.00;;
363;SDS011;173;48.718;9.274;2022-12-18T14:24:23;30.77;;;17.23;;
363;SDS011;173;48.718;9.274;2022-12-18T14:26:56;38.33;;;19.30;;
363;SDS011;173;48.718;9.274;2022-12-18T14:29:43;43.30;;;24.20;;
363;SDS011;173;48.718;9.274;2022-12-18T14:32:22;31.37;;;16.87;;
363;SDS011;173;48.718;9.274;2022-12-18T14:34:51;27.60;;;17.90;;
363;SDS011;173;48.718;9.274;2022-12-18T14:37:26;36.40;;;20.50;;
363;SDS011;173;48.718;9.274;2022-12-18T14:40:01;29.00;;;18.10;;
363;SDS011;173;48.718;9.274;2022-12-18T14:42:37;29.60;;;19.60;;
363;SDS011;173;48.718;9.274;2022-12-18T14:48:21;29.47;;;17.30;;
363;SDS011;173;48.718;9.274;2022-12-18T14:50:59;31.10;;;17.90;;
363;SDS011;173;48.718;9.274;2022-12-18T14:53:45;29.45;;;17.20;;
363;SDS011;173;48.718;9.274;2022-12-18T14:56:24;30.15;;;15.90;;
363;SDS011;173;48.718;9.274;2022-12-18T14:59:17;31.30;;;17.00;;
363;SDS011;173;48.718;9.274;2022-12-18T15:05:04;34.60;;;17.30;;
363;SDS011;173;48.718;9.274;2022-12-18T15:07:44;31.40;;;16.60;;
363;SDS011;173;48.718;9.274;2022-12-18T15:10:23;28.37;;;16.97;;
363;SDS011;173;48.718;9.274;2022-12-18T15:18:16;30.73;;;17.37;;
363;SDS011;173;48.718;9.274;2022-12-18T15:20:53;38.97;;;20.80;;
363;SDS011;173;48.718;9.274;2022-12-18T15:23:47;29.57;;;17.67;;
363;SDS011;173;48.718;9.274;2022-12-18T15:26:22;33.40;;;17.63;;
363;SDS011;173;48.718;9.274;2022-12-18T15:31:29;29.20;;;17.40;;
363;SDS011;173;48.718;9.274;2022-12-18T15:34:19;33.67;;;18.60;;
363;SDS011;173;48.718;9.274;2022-12-18T15:36:52;35.63;;;21.90;;
363;SDS011;173;48.718;9.274;2022-12-18T15:39:24;27.73;;;17.13;;
363;SDS011;173;48.718;9.274;2022-12-18T15:41:56;29.50;;;18.20;;
363;SDS011;173;48.718;9.274;2022-12-18T15:44:48;35.73;;;17.73;;
363;SDS011;173;48.718;9.274;2022-12-18T15:47:20;31.75;;;16.30;;
363;SDS011;173;48.718;9.274;2022-12-18T15:49:52;37.10;;;22.60;;
363;SDS011;173;48.718;9.274;2022-12-18T15:52:24;34.25;;;19.70;;
363;SDS011;173;48.718;9.274;2022-12-18T15:54:56;38.70;;;19.40;;
363;SDS011;173;48.718;9.274;2022-12-18T15:57:45;31.37;;;19.27;;
363;SDS011;173;48.718;9.274;2022-12-18T16:00:18;36.37;;;20.00;;
363;SDS011;173;48.718;9.274;2022-12-18T16:02:50;31.00;;;18.40;;
363;SDS011;173;48.718;9.274;2022-12-18T16:05:22;35.10;;;21.10;;
363;SDS011;173;48.718;9.274;2022-12-18T16:07:57;41.50;;;21.43;;
363;SDS011;173;48.718;9.274;2022-12-18T16:10:29;36.87;;;20.77;;
363;SDS011;173;48.718;9.274;2022-12-18T16:13:01;41.20;;;24.20;;
363;SDS011;173;48.718;9.274;2022-12-18T16:15:36;39.50;;;22.27;;
363;SDS011;173;48.718;9.274;2022-12-18T16:18:08;45.17;;;24.07;;
363;SDS011;173;48.718;9.274;2022-12-18T16:20:40;45.43;;;24.60;;
363;SDS011;173;48.718;9.274;2022-12-18T16:23:12;39.50;;;25.50;;
363;SDS011;173;48.718;9.274;2022-12-18T16:25:44;40.20;;;22.10;;
363;SDS011;173;48.718;9.274;2022-12-18T16:28:17;40.07;;;23.33;;
363;SDS011;173;48.718;9.274;2022-12-18T16:33:19;38.80;;;21.80;;
363;SDS011;173;48.718;9.274;2022-12-18T16:35:52;38.60;;;22.60;;
363;SDS011;173;48.718;9.274;2022-12-18T16:38:24;46.13;;;27.50;;
363;SDS011;173;48.718;9.274;2022-12-18T16:40:56;42.25;;;19.95;;
363;SDS011;173;48.718;9.274;2022-12-18T16:48:54;38.00;;;23.15;;
363;SDS011;173;48.718;9.274;2022-12-18T16:51:31;43.97;;;24.10;;
363;SDS011;173;48.718;9.274;2022-12-18T16:54:03;44.40;;;25.00;;
363;SDS011;173;48.718;9.274;2022-12-18T16:56:38;39.45;;;22.50;;
363;SDS011;173;48.718;9.274;2022-12-18T16:59:18;36.33;;;24.00;;
363;SDS011;173;48.718;9.274;2022-12-18T17:01:51;49.03;;;27.60;;
363;SDS011;173;48.718;9.274;2022-12-18T17:04:24;48.50;;;29.90;;
363;SDS011;173;48.718;9.274;2022-12-18T17:06:58;44.37;;;26.50;;
363;SDS011;173;48.718;9.274;2022-12-18T17:09:30;46.13;;;29.27;;
363;SDS011;173;48.718;9.274;2022-12-18T17:12:04;44.20;;;27.20;;
363;SDS011;173;48.718;9.274;2022-12-18T17:14:37;42.50;;;25.80;;
363;SDS011;173;48.718;9.274;2022-12-18T17:17:09;35.65;;;23.10;;
363;SDS011;173;48.718;9.274;2022-12-18T17:19:41;41.80;;;23.30;;
363;SDS011;173;48.718;9.274;2022-12-18T17:22:15;46.90;;;22.83;;
363;SDS011;173;48.718;9.274;2022-12-18T17:24:48;39.43;;;20.97;;
363;SDS011;173;48.718;9.274;2022-12-18T17:27:22;35.80;;;20.55;;
363;SDS011;173;48.718;9.274;2022-12-18T17:29:54;33.77;;;20.57;;
363;SDS011;173;48.718;9.274;2022-12-18T17:32:26;42.60;;;22.10;;
363;SDS011;173;48.718;9.274;2022-12-18T17:34:58;40.90;;;23.35;;
363;SDS011;173;48.718;9.274;2022-12-18T17:37:32;33.30;;;19.90;;
363;SDS011;173;48.718;9.274;2022-12-18T17:40:05;42.50;;;22.27;;
363;SDS011;173;48.718;9.274;2022-12-18T17:42:37;39.30;;;23.30;;
363;SDS011;173;48.718;9.274;2022-12-18T17:45:10;27.33;;;16.53;;
363;SDS011;173;48.718;9.274;2022-12-18T17:47:41;46.00;;;26.90;;
363;SDS011;173;48.718;9.274;2022-12-18T17:50:13;37.80;;;24.60;;
363;SDS011;173;48.718;9.274;2022-12-18T17:52:47;37.50;;;21.80;;
363;SDS011;173;48.718;9.274;2022-12-18T17:55:24;42.87;;;24.03;;
363;SDS011;173;48.718;9.274;2022-12-18T17:57:57;37.00;;;24.60;;
363;SDS011;173;48.718;9.274;2022-12-18T18:02:59;39.90;;;24.00;;
363;SDS011;173;48.718;9.274;2022-12-18T18:05:31;36.70;;;22.70;;
363;SDS011;173;48.718;9.274;2022-12-18T18:08:06;42.80;;;26.40;;
363;SDS011;173;48.718;9.274;2022-12-18T18:10:38;36.00;;;23.40;;
363;SDS011;173;48.718;9.274;2022-12-18T18:13:22;45.70;;;25.50;;
363;SDS011;173;48.718;9.274;2022-12-18T18:16:13;45.60;;;24.53;;
363;SDS011;173;48.718;9.274;2022-12-18T18:18:45;34.45;;;21.60;;
363;SDS011;173;48.718;9.274;2022-12-18T18:21:17;39.10;;;23.30;;
363;SDS011;173;48.718;9.274;2022-12-18T18:23:51;33.77;;;21.97;;
363;SDS011;173;48.718;9.274;2022-12-18T18:26:24;37.17;;;22.47;;
363;SDS011;173;48.718;9.274;2022-12-18T18:28:59;36.25;;;22.60;;
363;SDS011;173;48.718;9.274;2022-12-18T18:31:33;38.25;;;24.00;;
363;SDS011;173;48.718;9.274;2022-12-18T18:36:35;36.13;;;24.60;;
363;SDS011;173;48.718;9.274;2022-12-18T18:39:09;42.80;;;23.40;;
363;SDS011;173;48.718;9.274;2022-12-18T18:41:42;39.50;;;25.10;;
363;SDS011;173;48.718;9.274;2022-12-18T18:44:15;41.67;;;25.33;;
363;SDS011;173;48.718;9.274;2022-12-18T18:46:48;43.40;;;26.20;;
363;SDS011;173;48.718;9.274;2022-12-18T18:49:27;43.10;;;25.47;;
363;SDS011;173;48.718;9.274;2022-12-18T18:51:59;36.07;;;25.83;;
363;SDS011;173;48.718;9.274;2022-12-18T18:54:33;43.85;;;23.00;;
363;SDS011;173;48.718;9.274;2022-12-18T18:57:05;36.40;;;23.90;;
363;SDS011;173;48.718;9.274;2022-12-18T18:59:37;37.50;;;23.70;;
363;SDS011;173;48.718;9.274;2022-12-18T19:02:12;39.90;;;24.30;;
363;SDS011;173;48.718;9.274;2022-12-18T19:04:45;36.00;;;21.30;;